sensor_id;sensor_type;location;lat;lon;timestamp;pressure;altitude;pressure_sealevel;temperature;humidity
77975;BME280;67164;51.202;0.278;2023-02-20T00:00:30;102367.84;;;22.54;37.42
77975;BME280;67164;51.202;0.278;2023-02-20T00:02:53;102365.21;;;22.59;37.35
77975;BME280;67164;51.202;0.278;2023-02-20T00:05:20;102366.10;;;22.52;37.42
77975;BME280;67164;51.202;0.278;2023-02-20T00:07:45;102365.69;;;22.48;37.35
77975;BME280;67164;51.202;0.278;2023-02-20T00:10:11;102360.02;;;22.71;37.35
77975;BME280;67164;51.202;0.278;2023-02-20T00:12:37;102360.11;;;22.65;37.49
77975;BME280;67164;51.202;0.278;2023-02-20T00:15:03;102359.46;;;22.60;37.54
77975;BME280;67164;51.202;0.278;2023-02-20T00:17:28;102356.72;;;22.48;37.55
77975;BME280;67164;51.202;0.278;2023-02-20T00:19:54;102354.41;;;22.57;37.34
77975;BME280;67164;51.202;0.278;2023-02-20T00:22:20;102353.43;;;22.52;37.45
77975;BME280;67164;51.202;0.278;2023-02-20T00:24:46;102350.24;;;22.48;37.42
77975;BME280;67164;51.202;0.278;2023-02-20T00:27:11;102339.90;;;22.49;37.45
77975;BME280;67164;51.202;0.278;2023-02-20T00:29:37;102339.74;;;22.68;37.46
77975;BME280;67164;51.202;0.278;2023-02-20T00:32:03;102342.31;;;22.37;37.45
77975;BME280;67164;51.202;0.278;2023-02-20T00:34:33;102333.56;;;22.39;37.47
77975;BME280;67164;51.202;0.278;2023-02-20T00:36:54;102325.74;;;22.31;37.47
77975;BME280;67164;51.202;0.278;2023-02-20T00:39:20;102322.90;;;22.29;37.42
77975;BME280;67164;51.202;0.278;2023-02-20T00:41:46;102322.55;;;22.31;37.48
77975;BME280;67164;51.202;0.278;2023-02-20T00:44:12;102326.51;;;22.57;37.47
77975;BME280;67164;51.202;0.278;2023-02-20T00:46:38;102326.82;;;22.26;37.48
77975;BME280;67164;51.202;0.278;2023-02-20T00:49:03;102318.79;;;22.00;37.44
77975;BME280;67164;51.202;0.278;2023-02-20T00:51:29;102316.08;;;22.23;37.45
77975;BME280;67164;51.202;0.278;2023-02-20T00:53:55;102316.16;;;22.13;37.44
77975;BME280;67164;51.202;0.278;2023-02-20T00:56:21;102312.00;;;22.18;37.40
77975;BME280;67164;51.202;0.278;2023-02-20T00:58:46;102311.03;;;22.05;37.41
77975;BME280;67164;51.202;0.278;2023-02-20T01:01:13;102308.59;;;21.89;37.45
77975;BME280;67164;51.202;0.278;2023-02-20T01:03:38;102309.40;;;22.02;37.49
77975;BME280;67164;51.202;0.278;2023-02-20T01:06:04;102310.98;;;22.02;37.50
77975;BME280;67164;51.202;0.278;2023-02-20T01:08:31;102307.96;;;22.24;37.54
77975;BME280;67164;51.202;0.278;2023-02-20T01:10:56;102307.78;;;22.18;37.54
77975;BME280;67164;51.202;0.278;2023-02-20T01:13:22;102307.79;;;21.90;37.43
77975;BME280;67164;51.202;0.278;2023-02-20T01:15:47;102307.13;;;21.92;37.50
77975;BME280;67164;51.202;0.278;2023-02-20T01:18:14;102302.97;;;21.91;37.56
77975;BME280;67164;51.202;0.278;2023-02-20T01:20:39;102300.16;;;21.85;37.54
77975;BME280;67164;51.202;0.278;2023-02-20T01:23:05;102300.54;;;21.79;37.63
77975;BME280;67164;51.202;0.278;2023-02-20T01:25:30;102298.87;;;22.04;37.63
77975;BME280;67164;51.202;0.278;2023-02-20T01:27:56;102298.00;;;21.76;37.60
77975;BME280;67164;51.202;0.278;2023-02-20T01:30:22;102291.57;;;22.22;37.57
77975;BME280;67164;51.202;0.278;2023-02-20T01:32:48;102295.43;;;21.74;37.56
77975;BME280;67164;51.202;0.278;2023-02-20T01:35:14;102292.19;;;22.27;37.52
77975;BME280;67164;51.202;0.278;2023-02-20T01:37:39;102287.92;;;21.71;37.49
77975;BME280;67164;51.202;0.278;2023-02-20T01:40:07;102282.84;;;21.92;37.53
77975;BME280;67164;51.202;0.278;2023-02-20T01:42:33;102280.76;;;21.69;37.55
77975;BME280;67164;51.202;0.278;2023-02-20T01:47:22;102278.79;;;21.67;37.55
77975;BME280;67164;51.202;0.278;2023-02-20T01:49:50;102271.31;;;21.68;37.42
77975;BME280;67164;51.202;0.278;2023-02-20T01:52:15;102273.56;;;21.85;37.50
77975;BME280;67164;51.202;0.278;2023-02-20T01:54:40;102275.44;;;22.08;37.46
77975;BME280;67164;51.202;0.278;2023-02-20T01:57:07;102274.38;;;21.60;37.52
77975;BME280;67164;51.202;0.278;2023-02-20T01:59:32;102270.38;;;21.57;37.62
77975;BME280;67164;51.202;0.278;2023-02-20T02:01:56;102271.17;;;21.79;37.52
77975;BME280;67164;51.202;0.278;2023-02-20T02:04:22;102268.89;;;21.61;37.64
77975;BME280;67164;51.202;0.278;2023-02-20T02:06:50;102261.95;;;21.49;37.50
77975;BME280;67164;51.202;0.278;2023-02-20T02:09:18;102257.46;;;21.78;37.52
77975;BME280;67164;51.202;0.278;2023-02-20T02:11:39;102256.10;;;21.75;37.51
77975;BME280;67164;51.202;0.278;2023-02-20T02:14:04;102257.33;;;21.46;37.56
77975;BME280;67164;51.202;0.278;2023-02-20T02:16:36;102255.76;;;21.63;37.75
77975;BME280;67164;51.202;0.278;2023-02-20T02:18:59;102250.22;;;21.93;37.65
77975;BME280;67164;51.202;0.278;2023-02-20T02:24:05;102238.36;;;21.63;37.60
77975;BME280;67164;51.202;0.278;2023-02-20T02:26:28;102240.27;;;21.68;37.59
77975;BME280;67164;51.202;0.278;2023-02-20T02:31:27;102237.52;;;21.40;37.69
77975;BME280;67164;51.202;0.278;2023-02-20T02:33:45;102235.98;;;21.40;37.51
77975;BME280;67164;51.202;0.278;2023-02-20T02:36:16;102239.66;;;21.41;37.55
77975;BME280;67164;51.202;0.278;2023-02-20T02:38:25;102237.73;;;21.59;37.58
77975;BME280;67164;51.202;0.278;2023-02-20T02:40:53;102235.58;;;21.31;37.57
77975;BME280;67164;51.202;0.278;2023-02-20T02:43:17;102235.44;;;21.24;37.60
77975;BME280;67164;51.202;0.278;2023-02-20T02:45:46;102227.97;;;21.52;37.61
77975;BME280;67164;51.202;0.278;2023-02-20T02:48:10;102230.64;;;21.44;37.71
77975;BME280;67164;51.202;0.278;2023-02-20T02:50:33;102232.95;;;21.50;37.71
77975;BME280;67164;51.202;0.278;2023-02-20T02:52:57;102234.26;;;21.41;37.69
77975;BME280;67164;51.202;0.278;2023-02-20T02:55:24;102235.89;;;21.63;37.81
77975;BME280;67164;51.202;0.278;2023-02-20T02:57:48;102240.32;;;21.42;37.78
77975;BME280;67164;51.202;0.278;2023-02-20T03:00:16;102238.66;;;21.63;37.78
77975;BME280;67164;51.202;0.278;2023-02-20T03:02:44;102236.49;;;21.27;37.76
77975;BME280;67164;51.202;0.278;2023-02-20T03:05:09;102235.42;;;21.30;37.89
77975;BME280;67164;51.202;0.278;2023-02-20T03:07:33;102237.90;;;21.52;37.64
77975;BME280;67164;51.202;0.278;2023-02-20T03:10:02;102233.02;;;21.52;37.77
77975;BME280;67164;51.202;0.278;2023-02-20T03:12:25;102227.92;;;21.27;37.75
77975;BME280;67164;51.202;0.278;2023-02-20T03:14:55;102228.81;;;21.27;37.85
77975;BME280;67164;51.202;0.278;2023-02-20T03:17:21;102227.04;;;21.06;37.69
77975;BME280;67164;51.202;0.278;2023-02-20T03:19:42;102228.78;;;21.45;37.75
77975;BME280;67164;51.202;0.278;2023-02-20T03:22:12;102234.16;;;21.48;37.76
77975;BME280;67164;51.202;0.278;2023-02-20T03:24:34;102238.94;;;21.39;37.64
77975;BME280;67164;51.202;0.278;2023-02-20T03:26:59;102236.33;;;21.17;37.75
77975;BME280;67164;51.202;0.278;2023-02-20T03:29:29;102233.98;;;21.37;37.82
77975;BME280;67164;51.202;0.278;2023-02-20T03:31:52;102235.75;;;21.17;37.83
77975;BME280;67164;51.202;0.278;2023-02-20T03:34:18;102235.34;;;20.96;37.71
77975;BME280;67164;51.202;0.278;2023-02-20T03:36:47;102232.70;;;21.14;37.58
77975;BME280;67164;51.202;0.278;2023-02-20T03:39:11;102235.64;;;21.30;37.68
77975;BME280;67164;51.202;0.278;2023-02-20T03:41:34;102234.56;;;21.25;37.80
77975;BME280;67164;51.202;0.278;2023-02-20T03:43:59;102235.36;;;21.30;37.89
77975;BME280;67164;51.202;0.278;2023-02-20T03:46:25;102236.17;;;21.26;37.70
77975;BME280;67164;51.202;0.278;2023-02-20T03:48:54;102236.62;;;21.30;37.72
77975;BME280;67164;51.202;0.278;2023-02-20T03:51:16;102233.82;;;21.29;37.68
77975;BME280;67164;51.202;0.278;2023-02-20T03:53:43;102234.76;;;21.06;37.74
77975;BME280;67164;51.202;0.278;2023-02-20T03:56:12;102240.63;;;21.31;37.66
77975;BME280;67164;51.202;0.278;2023-02-20T03:58:37;102234.30;;;21.19;37.77
77975;BME280;67164;51.202;0.278;2023-02-20T04:01:02;102237.09;;;20.92;37.74
77975;BME280;67164;51.202;0.278;2023-02-20T04:03:29;102240.37;;;21.14;37.91
77975;BME280;67164;51.202;0.278;2023-02-20T04:05:53;102242.09;;;21.18;37.85
77975;BME280;67164;51.202;0.278;2023-02-20T04:08:19;102234.13;;;21.12;37.87
77975;BME280;67164;51.202;0.278;2023-02-20T04:10:45;102229.52;;;21.15;37.91
77975;BME280;67164;51.202;0.278;2023-02-20T04:13:10;102231.89;;;21.15;37.76
77975;BME280;67164;51.202;0.278;2023-02-20T04:15:34;102232.71;;;21.16;37.85
77975;BME280;67164;51.202;0.278;2023-02-20T04:18:03;102234.55;;;21.11;37.85
77975;BME280;67164;51.202;0.278;2023-02-20T04:20:26;102230.53;;;21.08;37.84
77975;BME280;67164;51.202;0.278;2023-02-20T04:22:56;102230.31;;;21.06;37.72
77975;BME280;67164;51.202;0.278;2023-02-20T04:25:22;102234.42;;;20.80;37.98
77975;BME280;67164;51.202;0.278;2023-02-20T04:27:43;102241.98;;;20.77;38.02
77975;BME280;67164;51.202;0.278;2023-02-20T04:30:09;102245.00;;;21.03;37.76
77975;BME280;67164;51.202;0.278;2023-02-20T04:32:34;102245.16;;;20.94;37.95
77975;BME280;67164;51.202;0.278;2023-02-20T04:35:00;102240.37;;;20.96;37.94
77975;BME280;67164;51.202;0.278;2023-02-20T04:37:26;102243.40;;;20.95;37.91
77975;BME280;67164;51.202;0.278;2023-02-20T04:39:51;102249.87;;;20.99;37.99
77975;BME280;67164;51.202;0.278;2023-02-20T04:42:17;102242.79;;;20.98;37.79
77975;BME280;67164;51.202;0.278;2023-02-20T04:44:43;102237.28;;;20.94;37.98
77975;BME280;67164;51.202;0.278;2023-02-20T04:47:12;102237.72;;;20.92;37.96
77975;BME280;67164;51.202;0.278;2023-02-20T04:49:35;102241.14;;;21.08;38.05
77975;BME280;67164;51.202;0.278;2023-02-20T04:52:00;102235.48;;;20.91;37.94
77975;BME280;67164;51.202;0.278;2023-02-20T04:54:26;102239.04;;;21.13;37.97
77975;BME280;67164;51.202;0.278;2023-02-20T04:56:52;102233.82;;;20.91;37.98
77975;BME280;67164;51.202;0.278;2023-02-20T04:59:18;102234.53;;;21.06;37.91
77975;BME280;67164;51.202;0.278;2023-02-20T05:01:44;102236.68;;;20.56;38.11
77975;BME280;67164;51.202;0.278;2023-02-20T05:04:09;102242.34;;;20.83;37.98
77975;BME280;67164;51.202;0.278;2023-02-20T05:06:40;102234.60;;;21.10;37.94
77975;BME280;67164;51.202;0.278;2023-02-20T05:09:01;102235.15;;;20.84;38.21
77975;BME280;67164;51.202;0.278;2023-02-20T05:11:27;102230.89;;;20.86;38.05
77975;BME280;67164;51.202;0.278;2023-02-20T05:13:53;102235.11;;;20.82;38.04
77975;BME280;67164;51.202;0.278;2023-02-20T05:16:18;102235.31;;;20.82;38.00
77975;BME280;67164;51.202;0.278;2023-02-20T05:18:44;102231.88;;;20.77;38.06
77975;BME280;67164;51.202;0.278;2023-02-20T05:21:13;102239.31;;;20.70;38.07
77975;BME280;67164;51.202;0.278;2023-02-20T05:23:36;102242.14;;;20.75;38.19
77975;BME280;67164;51.202;0.278;2023-02-20T05:26:02;102239.93;;;20.74;38.21
77975;BME280;67164;51.202;0.278;2023-02-20T05:28:27;102237.18;;;21.21;38.15
77975;BME280;67164;51.202;0.278;2023-02-20T05:30:53;102236.78;;;20.68;38.33
77975;BME280;67164;51.202;0.278;2023-02-20T05:33:19;102236.82;;;20.96;38.16
77975;BME280;67164;51.202;0.278;2023-02-20T05:35:45;102238.66;;;20.70;38.09
77975;BME280;67164;51.202;0.278;2023-02-20T05:38:16;102238.63;;;20.67;38.16
77975;BME280;67164;51.202;0.278;2023-02-20T05:40:37;102236.56;;;20.66;38.18
77975;BME280;67164;51.202;0.278;2023-02-20T05:43:02;102236.87;;;20.68;38.08
77975;BME280;67164;51.202;0.278;2023-02-20T05:45:28;102237.77;;;20.89;38.11
77975;BME280;67164;51.202;0.278;2023-02-20T05:47:54;102239.20;;;20.60;38.10
77975;BME280;67164;51.202;0.278;2023-02-20T05:50:20;102244.40;;;20.86;38.25
77975;BME280;67164;51.202;0.278;2023-02-20T05:52:46;102244.23;;;21.05;38.32
77975;BME280;67164;51.202;0.278;2023-02-20T05:55:11;102240.38;;;20.55;38.37
77975;BME280;67164;51.202;0.278;2023-02-20T05:57:37;102237.52;;;20.56;38.31
77975;BME280;67164;51.202;0.278;2023-02-20T06:00:04;102239.27;;;20.85;38.21
77975;BME280;67164;51.202;0.278;2023-02-20T06:02:30;102237.99;;;20.53;38.18
77975;BME280;67164;51.202;0.278;2023-02-20T06:04:55;102234.34;;;20.57;38.30
77975;BME280;67164;51.202;0.278;2023-02-20T06:07:21;102240.01;;;20.53;38.33
77975;BME280;67164;51.202;0.278;2023-02-20T06:09:46;102236.68;;;20.55;38.18
77975;BME280;67164;51.202;0.278;2023-02-20T06:12:12;102232.53;;;20.52;38.17
77975;BME280;67164;51.202;0.278;2023-02-20T06:14:38;102236.10;;;20.58;38.22
77975;BME280;67164;51.202;0.278;2023-02-20T06:17:04;102236.84;;;20.55;38.25
77975;BME280;67164;51.202;0.278;2023-02-20T06:19:30;102235.38;;;20.46;38.21
77975;BME280;67164;51.202;0.278;2023-02-20T06:21:55;102236.77;;;20.65;38.26
77975;BME280;67164;51.202;0.278;2023-02-20T06:24:21;102234.82;;;20.49;38.27
77975;BME280;67164;51.202;0.278;2023-02-20T06:26:47;102233.40;;;20.49;38.07
77975;BME280;67164;51.202;0.278;2023-02-20T06:29:14;102225.58;;;20.44;38.19
77975;BME280;67164;51.202;0.278;2023-02-20T06:31:39;102224.73;;;20.67;38.28
77975;BME280;67164;51.202;0.278;2023-02-20T06:34:06;102228.85;;;20.42;38.20
77975;BME280;67164;51.202;0.278;2023-02-20T06:36:33;102223.47;;;20.92;38.25
77975;BME280;67164;51.202;0.278;2023-02-20T06:38:56;102228.44;;;20.66;38.30
77975;BME280;67164;51.202;0.278;2023-02-20T06:41:22;102223.45;;;20.65;38.31
77975;BME280;67164;51.202;0.278;2023-02-20T06:43:48;102222.89;;;20.60;38.32
77975;BME280;67164;51.202;0.278;2023-02-20T06:46:13;102229.13;;;20.34;38.39
77975;BME280;67164;51.202;0.278;2023-02-20T06:48:43;102222.76;;;20.55;38.39
77975;BME280;67164;51.202;0.278;2023-02-20T06:51:05;102227.64;;;20.59;38.37
77975;BME280;67164;51.202;0.278;2023-02-20T06:53:31;102227.31;;;20.31;38.43
77975;BME280;67164;51.202;0.278;2023-02-20T06:55:57;102221.49;;;20.27;38.39
77975;BME280;67164;51.202;0.278;2023-02-20T06:58:22;102221.91;;;20.31;38.59
77975;BME280;67164;51.202;0.278;2023-02-20T07:00:48;102230.61;;;20.52;38.55
77975;BME280;67164;51.202;0.278;2023-02-20T07:03:14;102224.41;;;20.28;38.48
77975;BME280;67164;51.202;0.278;2023-02-20T07:05:40;102224.74;;;20.51;38.46
77975;BME280;67164;51.202;0.278;2023-02-20T07:08:06;102222.34;;;20.68;38.42
77975;BME280;67164;51.202;0.278;2023-02-20T07:10:31;102222.42;;;20.44;38.59
77975;BME280;67164;51.202;0.278;2023-02-20T07:12:56;102222.12;;;20.43;38.53
77975;BME280;67164;51.202;0.278;2023-02-20T07:15:22;102229.79;;;20.71;38.52
77975;BME280;67164;51.202;0.278;2023-02-20T07:17:48;102232.02;;;20.25;38.38
77975;BME280;67164;51.202;0.278;2023-02-20T07:20:15;102233.83;;;20.70;38.52
77975;BME280;67164;51.202;0.278;2023-02-20T07:22:48;102237.55;;;20.44;38.54
77975;BME280;67164;51.202;0.278;2023-02-20T07:25:06;102239.67;;;20.46;38.56
77975;BME280;67164;51.202;0.278;2023-02-20T07:27:31;102242.69;;;20.68;38.54
77975;BME280;67164;51.202;0.278;2023-02-20T07:29:57;102242.85;;;20.41;38.64
77975;BME280;67164;51.202;0.278;2023-02-20T07:32:23;102242.09;;;20.41;38.46
77975;BME280;67164;51.202;0.278;2023-02-20T07:34:48;102244.49;;;20.39;38.70
77975;BME280;67164;51.202;0.278;2023-02-20T07:37:15;102248.50;;;20.64;38.56
77975;BME280;67164;51.202;0.278;2023-02-20T07:39:40;102249.07;;;20.62;38.60
77975;BME280;67164;51.202;0.278;2023-02-20T07:42:06;102246.49;;;20.41;38.61
77975;BME280;67164;51.202;0.278;2023-02-20T07:44:32;102246.16;;;20.07;38.74
77975;BME280;67164;51.202;0.278;2023-02-20T07:46:57;102248.77;;;20.60;38.68
77975;BME280;67164;51.202;0.278;2023-02-20T07:49:23;102251.78;;;20.36;38.58
77975;BME280;67164;51.202;0.278;2023-02-20T07:51:49;102251.41;;;20.31;38.57
77975;BME280;67164;51.202;0.278;2023-02-20T07:54:15;102254.43;;;20.56;38.67
77975;BME280;67164;51.202;0.278;2023-02-20T07:56:41;102253.66;;;20.25;38.74
77975;BME280;67164;51.202;0.278;2023-02-20T07:59:07;102252.82;;;20.30;38.74
77975;BME280;67164;51.202;0.278;2023-02-20T08:01:32;102249.79;;;20.05;38.80
77975;BME280;67164;51.202;0.278;2023-02-20T08:03:58;102242.77;;;20.29;38.70
77975;BME280;67164;51.202;0.278;2023-02-20T08:06:24;102240.66;;;20.37;38.56
77975;BME280;67164;51.202;0.278;2023-02-20T08:08:51;102236.55;;;20.11;38.55
77975;BME280;67164;51.202;0.278;2023-02-20T08:11:16;102235.29;;;20.28;38.76
77975;BME280;67164;51.202;0.278;2023-02-20T08:13:42;102235.44;;;20.33;38.62
77975;BME280;67164;51.202;0.278;2023-02-20T08:16:07;102240.41;;;20.11;38.69
77975;BME280;67164;51.202;0.278;2023-02-20T08:18:33;102243.62;;;20.58;38.69
77975;BME280;67164;51.202;0.278;2023-02-20T08:20:59;102243.56;;;20.29;38.66
77975;BME280;67164;51.202;0.278;2023-02-20T08:23:25;102240.39;;;20.28;38.75
77975;BME280;67164;51.202;0.278;2023-02-20T08:25:51;102239.69;;;20.28;38.77
77975;BME280;67164;51.202;0.278;2023-02-20T08:28:16;102241.75;;;20.23;38.85
77975;BME280;67164;51.202;0.278;2023-02-20T08:30:43;102245.67;;;20.33;38.71
77975;BME280;67164;51.202;0.278;2023-02-20T08:33:08;102244.01;;;20.42;38.64
77975;BME280;67164;51.202;0.278;2023-02-20T08:35:35;102247.51;;;20.88;38.74
77975;BME280;67164;51.202;0.278;2023-02-20T08:38:00;102249.22;;;20.44;38.82
77975;BME280;67164;51.202;0.278;2023-02-20T08:40:25;102241.98;;;20.49;38.84
77975;BME280;67164;51.202;0.278;2023-02-20T08:42:51;102240.45;;;20.41;39.05
77975;BME280;67164;51.202;0.278;2023-02-20T08:45:17;102240.28;;;20.25;39.41
77975;BME280;67164;51.202;0.278;2023-02-20T08:47:43;102244.27;;;20.38;40.52
77975;BME280;67164;51.202;0.278;2023-02-20T08:50:09;102247.61;;;20.31;41.04
77975;BME280;67164;51.202;0.278;2023-02-20T08:52:34;102252.63;;;20.65;41.15
77975;BME280;67164;51.202;0.278;2023-02-20T08:55:00;102257.09;;;20.40;41.09
77975;BME280;67164;51.202;0.278;2023-02-20T08:57:26;102256.67;;;20.74;40.74
77975;BME280;67164;51.202;0.278;2023-02-20T08:59:52;102252.21;;;20.27;40.83
77975;BME280;67164;51.202;0.278;2023-02-20T09:02:19;102246.03;;;20.62;40.43
77975;BME280;67164;51.202;0.278;2023-02-20T09:04:43;102244.18;;;20.52;40.84
77975;BME280;67164;51.202;0.278;2023-02-20T09:07:09;102248.42;;;20.39;41.04
77975;BME280;67164;51.202;0.278;2023-02-20T09:09:35;102256.29;;;20.41;40.99
77975;BME280;67164;51.202;0.278;2023-02-20T09:12:00;102262.60;;;20.12;41.08
77975;BME280;67164;51.202;0.278;2023-02-20T09:14:26;102261.73;;;20.63;40.82
77975;BME280;67164;51.202;0.278;2023-02-20T09:16:52;102257.53;;;20.60;40.82
77975;BME280;67164;51.202;0.278;2023-02-20T09:19:18;102258.08;;;20.28;41.09
77975;BME280;67164;51.202;0.278;2023-02-20T09:21:46;102255.64;;;19.96;41.29
77975;BME280;67164;51.202;0.278;2023-02-20T09:24:09;102256.33;;;20.42;41.41
77975;BME280;67164;51.202;0.278;2023-02-20T09:26:35;102253.65;;;20.48;41.05
77975;BME280;67164;51.202;0.278;2023-02-20T09:29:01;102254.86;;;20.77;40.94
77975;BME280;67164;51.202;0.278;2023-02-20T09:31:27;102257.70;;;20.53;40.98
77975;BME280;67164;51.202;0.278;2023-02-20T09:33:53;102257.78;;;20.42;41.25
77975;BME280;67164;51.202;0.278;2023-02-20T09:36:19;102257.04;;;20.42;41.71
77975;BME280;67164;51.202;0.278;2023-02-20T09:38:44;102256.40;;;20.03;41.72
77975;BME280;67164;51.202;0.278;2023-02-20T09:41:20;102253.94;;;20.34;41.73
77975;BME280;67164;51.202;0.278;2023-02-20T09:43:43;102248.00;;;20.27;41.91
77975;BME280;67164;51.202;0.278;2023-02-20T09:46:07;102241.04;;;20.55;41.58
77975;BME280;67164;51.202;0.278;2023-02-20T09:48:39;102241.25;;;20.83;41.54
77975;BME280;67164;51.202;0.278;2023-02-20T09:50:56;102246.86;;;20.67;41.47
77975;BME280;67164;51.202;0.278;2023-02-20T09:53:22;102242.51;;;20.47;41.48
77975;BME280;67164;51.202;0.278;2023-02-20T09:55:46;102239.62;;;20.41;41.65
77975;BME280;67164;51.202;0.278;2023-02-20T09:58:19;102238.19;;;20.69;41.94
77975;BME280;67164;51.202;0.278;2023-02-20T10:00:37;102225.18;;;20.52;41.64
77975;BME280;67164;51.202;0.278;2023-02-20T10:03:16;102229.65;;;20.31;41.97
77975;BME280;67164;51.202;0.278;2023-02-20T10:05:28;102222.98;;;20.35;42.11
77975;BME280;67164;51.202;0.278;2023-02-20T10:07:55;102221.21;;;20.85;41.29
77975;BME280;67164;51.202;0.278;2023-02-20T10:10:23;102222.83;;;21.03;41.02
77975;BME280;67164;51.202;0.278;2023-02-20T10:12:57;102229.80;;;21.10;40.87
77975;BME280;67164;51.202;0.278;2023-02-20T10:15:17;102227.63;;;21.28;40.95
77975;BME280;67164;51.202;0.278;2023-02-20T10:17:44;102227.69;;;21.44;40.45
77975;BME280;67164;51.202;0.278;2023-02-20T10:20:09;102222.43;;;21.50;40.28
77975;BME280;67164;51.202;0.278;2023-02-20T10:22:32;102222.25;;;21.85;40.03
77975;BME280;67164;51.202;0.278;2023-02-20T10:25:04;102218.74;;;21.65;39.87
77975;BME280;67164;51.202;0.278;2023-02-20T10:27:27;102214.77;;;21.76;40.24
77975;BME280;67164;51.202;0.278;2023-02-20T10:29:46;102215.85;;;21.48;40.10
77975;BME280;67164;51.202;0.278;2023-02-20T10:32:17;102212.43;;;21.72;40.05
77975;BME280;67164;51.202;0.278;2023-02-20T10:34:41;102216.54;;;21.44;40.01
77975;BME280;67164;51.202;0.278;2023-02-20T10:37:09;102215.66;;;21.38;40.03
77975;BME280;67164;51.202;0.278;2023-02-20T10:39:31;102220.25;;;21.43;39.90
77975;BME280;67164;51.202;0.278;2023-02-20T10:41:59;102216.47;;;21.50;39.77
77975;BME280;67164;51.202;0.278;2023-02-20T10:44:26;102210.80;;;21.64;39.81
77975;BME280;67164;51.202;0.278;2023-02-20T10:46:50;102199.37;;;21.23;40.02
77975;BME280;67164;51.202;0.278;2023-02-20T10:49:18;102197.39;;;21.48;39.67
77975;BME280;67164;51.202;0.278;2023-02-20T10:51:41;102207.62;;;21.47;39.59
77975;BME280;67164;51.202;0.278;2023-02-20T10:54:07;102205.18;;;21.55;39.55
77975;BME280;67164;51.202;0.278;2023-02-20T10:56:36;102206.15;;;21.58;39.42
77975;BME280;67164;51.202;0.278;2023-02-20T10:59:00;102203.66;;;21.51;39.45
77975;BME280;67164;51.202;0.278;2023-02-20T11:01:23;102200.09;;;21.60;39.29
77975;BME280;67164;51.202;0.278;2023-02-20T11:03:51;102205.08;;;21.62;39.17
77975;BME280;67164;51.202;0.278;2023-02-20T11:06:16;102205.19;;;21.61;39.16
77975;BME280;67164;51.202;0.278;2023-02-20T11:08:38;102204.35;;;21.59;39.15
77975;BME280;67164;51.202;0.278;2023-02-20T11:13:30;102199.79;;;21.56;39.15
77975;BME280;67164;51.202;0.278;2023-02-20T11:15:56;102195.07;;;21.64;39.31
77975;BME280;67164;51.202;0.278;2023-02-20T11:18:24;102196.50;;;21.43;39.28
77975;BME280;67164;51.202;0.278;2023-02-20T11:20:47;102196.90;;;21.49;39.15
77975;BME280;67164;51.202;0.278;2023-02-20T11:25:41;102197.03;;;21.63;39.20
77975;BME280;67164;51.202;0.278;2023-02-20T11:28:09;102189.07;;;21.54;39.26
77975;BME280;67164;51.202;0.278;2023-02-20T11:30:34;102183.99;;;21.33;39.18
77975;BME280;67164;51.202;0.278;2023-02-20T11:33:04;102181.84;;;21.21;39.30
77975;BME280;67164;51.202;0.278;2023-02-20T11:35:26;102179.93;;;21.36;39.43
77975;BME280;67164;51.202;0.278;2023-02-20T11:37:49;102173.55;;;21.44;39.37
77975;BME280;67164;51.202;0.278;2023-02-20T11:40:15;102163.26;;;21.49;39.32
77975;BME280;67164;51.202;0.278;2023-02-20T11:42:39;102174.60;;;21.25;39.57
77975;BME280;67164;51.202;0.278;2023-02-20T11:45:11;102185.14;;;21.18;39.45
77975;BME280;67164;51.202;0.278;2023-02-20T11:47:30;102174.74;;;21.22;39.28
77975;BME280;67164;51.202;0.278;2023-02-20T11:50:10;102175.36;;;21.49;39.19
77975;BME280;67164;51.202;0.278;2023-02-20T11:52:22;102175.36;;;21.53;39.09
77975;BME280;67164;51.202;0.278;2023-02-20T11:54:46;102169.49;;;21.53;39.07
77975;BME280;67164;51.202;0.278;2023-02-20T11:57:21;102163.64;;;21.51;39.07
77975;BME280;67164;51.202;0.278;2023-02-20T11:59:39;102163.08;;;21.55;39.01
77975;BME280;67164;51.202;0.278;2023-02-20T12:04:29;102172.09;;;21.32;39.00
77975;BME280;67164;51.202;0.278;2023-02-20T12:06:54;102168.58;;;21.74;39.03
77975;BME280;67164;51.202;0.278;2023-02-20T12:09:24;102161.48;;;21.49;39.01
77975;BME280;67164;51.202;0.278;2023-02-20T12:11:46;102159.62;;;20.65;39.72
77975;BME280;67164;51.202;0.278;2023-02-20T12:14:13;102148.12;;;20.39;40.58
77975;BME280;67164;51.202;0.278;2023-02-20T12:16:51;102138.37;;;19.73;41.61
77975;BME280;67164;51.202;0.278;2023-02-20T12:19:09;102132.82;;;19.60;42.01
77975;BME280;67164;51.202;0.278;2023-02-20T12:21:40;102133.15;;;20.00;41.96
77975;BME280;67164;51.202;0.278;2023-02-20T12:24:02;102129.54;;;20.36;41.24
77975;BME280;67164;51.202;0.278;2023-02-20T12:26:28;102132.33;;;20.14;41.66
77975;BME280;67164;51.202;0.278;2023-02-20T12:28:54;102126.90;;;20.12;41.73
77975;BME280;67164;51.202;0.278;2023-02-20T12:31:20;102120.76;;;20.44;41.52
77975;BME280;67164;51.202;0.278;2023-02-20T12:33:51;102114.48;;;20.33;41.48
77975;BME280;67164;51.202;0.278;2023-02-20T12:36:08;102110.07;;;20.17;41.36
77975;BME280;67164;51.202;0.278;2023-02-20T12:38:37;102108.73;;;20.56;41.22
77975;BME280;67164;51.202;0.278;2023-02-20T12:43:29;102097.67;;;20.63;40.98
77975;BME280;67164;51.202;0.278;2023-02-20T12:45:51;102097.66;;;20.53;40.75
77975;BME280;67164;51.202;0.278;2023-02-20T12:48:24;102108.27;;;20.80;40.53
77975;BME280;67164;51.202;0.278;2023-02-20T12:50:45;102099.54;;;20.84;40.71
77975;BME280;67164;51.202;0.278;2023-02-20T12:53:10;102094.11;;;20.95;40.39
77975;BME280;67164;51.202;0.278;2023-02-20T12:55:32;102082.32;;;20.71;40.77
77975;BME280;67164;51.202;0.278;2023-02-20T12:58:06;102077.87;;;20.52;41.01